sensor_id;sensor_type;location;lat;lon;timestamp;pressure;altitude;pressure_sealevel;temperature;humidity
28306;BME280;7516;43.570;1.448;2022-12-18T00:01:00;100254.66;;;6.28;100.00
28306;BME280;7516;43.570;1.448;2022-12-18T00:03:32;100258.81;;;6.31;100.00
28306;BME280;7516;43.570;1.448;2022-12-18T00:06:01;100253.03;;;6.27;100.00
28306;BME280;7516;43.570;1.448;2022-12-18T00:08:29;100247.00;;;6.27;100.00
28306;BME280;7516;43.570;1.448;2022-12-18T00:11:03;100244.50;;;6.25;100.00
28306;BME280;7516;43.570;1.448;2022-12-18T00:13:31;100242.06;;;6.24;100.00
28306;BME280;7516;43.570;1.448;2022-12-18T00:16:02;100245.06;;;6.19;100.00
28306;BME280;7516;43.570;1.448;2022-12-18T00:18:30;100236.72;;;6.25;100.00
28306;BME280;7516;43.570;1.448;2022-12-18T00:20:59;100235.22;;;6.23;100.00
28306;BME280;7516;43.570;1.448;2022-12-18T00:23:29;100230.69;;;6.25;100.00
28306;BME280;7516;43.570;1.448;2022-12-18T00:25:59;100234.94;;;6.26;100.00
28306;BME280;7516;43.570;1.448;2022-12-18T00:28:27;100230.00;;;6.23;100.00
28306;BME280;7516;43.570;1.448;2022-12-18T00:31:00;100240.13;;;6.26;100.00
28306;BME280;7516;43.570;1.448;2022-12-18T00:33:29;100243.44;;;6.28;100.00
28306;BME280;7516;43.570;1.448;2022-12-18T00:36:01;100239.31;;;6.25;100.00
28306;BME280;7516;43.570;1.448;2022-12-18T00:38:30;100245.63;;;6.23;100.00
28306;BME280;7516;43.570;1.448;2022-12-18T00:40:57;100238.66;;;6.23;100.00
28306;BME280;7516;43.570;1.448;2022-12-18T00:43:25;100237.13;;;6.21;100.00
28306;BME280;7516;43.570;1.448;2022-12-18T00:45:52;100237.41;;;6.27;100.00
28306;BME280;7516;43.570;1.448;2022-12-18T00:48:19;100234.38;;;6.22;100.00
28306;BME280;7516;43.570;1.448;2022-12-18T00:50:48;100229.06;;;6.24;100.00
28306;BME280;7516;43.570;1.448;2022-12-18T00:53:16;100239.59;;;6.22;100.00
28306;BME280;7516;43.570;1.448;2022-12-18T00:55:45;100232.50;;;6.24;100.00
28306;BME280;7516;43.570;1.448;2022-12-18T00:58:15;100236.03;;;6.23;100.00
28306;BME280;7516;43.570;1.448;2022-12-18T01:00:43;100246.81;;;6.19;100.00
28306;BME280;7516;43.570;1.448;2022-12-18T01:03:13;100253.81;;;6.18;100.00
28306;BME280;7516;43.570;1.448;2022-12-18T01:05:41;100254.38;;;6.22;100.00
28306;BME280;7516;43.570;1.448;2022-12-18T01:08:09;100268.34;;;6.21;100.00
28306;BME280;7516;43.570;1.448;2022-12-18T01:10:39;100276.72;;;6.24;100.00
28306;BME280;7516;43.570;1.448;2022-12-18T01:13:08;100276.03;;;6.22;100.00
28306;BME280;7516;43.570;1.448;2022-12-18T01:15:36;100279.94;;;6.17;100.00
28306;BME280;7516;43.570;1.448;2022-12-18T01:18:06;100281.72;;;6.16;100.00
28306;BME280;7516;43.570;1.448;2022-12-18T01:20:34;100278.00;;;6.09;100.00
28306;BME280;7516;43.570;1.448;2022-12-18T01:23:01;100278.13;;;6.08;100.00
28306;BME280;7516;43.570;1.448;2022-12-18T01:25:29;100284.31;;;6.07;100.00
28306;BME280;7516;43.570;1.448;2022-12-18T01:27:57;100296.16;;;5.99;100.00
28306;BME280;7516;43.570;1.448;2022-12-18T01:30:25;100291.72;;;5.90;100.00
28306;BME280;7516;43.570;1.448;2022-12-18T01:32:53;100293.16;;;5.83;100.00
28306;BME280;7516;43.570;1.448;2022-12-18T01:35:21;100294.22;;;5.81;100.00
28306;BME280;7516;43.570;1.448;2022-12-18T01:37:48;100300.88;;;5.74;100.00
28306;BME280;7516;43.570;1.448;2022-12-18T01:40:16;100302.41;;;5.76;100.00
28306;BME280;7516;43.570;1.448;2022-12-18T01:42:43;100305.78;;;5.67;100.00
28306;BME280;7516;43.570;1.448;2022-12-18T01:45:27;100307.94;;;5.62;100.00
28306;BME280;7516;43.570;1.448;2022-12-18T01:47:57;100314.31;;;5.58;100.00
28306;BME280;7516;43.570;1.448;2022-12-18T01:50:29;100304.63;;;5.60;100.00
28306;BME280;7516;43.570;1.448;2022-12-18T01:52:59;100305.81;;;5.56;100.00
28306;BME280;7516;43.570;1.448;2022-12-18T01:55:30;100305.69;;;5.57;100.00
28306;BME280;7516;43.570;1.448;2022-12-18T01:57:59;100308.69;;;5.53;100.00
28306;BME280;7516;43.570;1.448;2022-12-18T02:00:29;100303.72;;;5.50;100.00
28306;BME280;7516;43.570;1.448;2022-12-18T02:02:57;100310.19;;;5.55;100.00
28306;BME280;7516;43.570;1.448;2022-12-18T02:05:36;100310.25;;;5.44;100.00
28306;BME280;7516;43.570;1.448;2022-12-18T02:08:10;100321.25;;;5.37;100.00
28306;BME280;7516;43.570;1.448;2022-12-18T02:10:46;100323.84;;;5.37;100.00
28306;BME280;7516;43.570;1.448;2022-12-18T02:13:20;100330.03;;;5.24;100.00
28306;BME280;7516;43.570;1.448;2022-12-18T02:15:59;100329.84;;;5.16;100.00
28306;BME280;7516;43.570;1.448;2022-12-18T02:18:33;100332.66;;;5.13;100.00
28306;BME280;7516;43.570;1.448;2022-12-18T02:21:11;100328.78;;;5.08;100.00
28306;BME280;7516;43.570;1.448;2022-12-18T02:23:47;100331.06;;;5.01;100.00
28306;BME280;7516;43.570;1.448;2022-12-18T02:26:24;100335.88;;;4.95;100.00
28306;BME280;7516;43.570;1.448;2022-12-18T02:28:56;100334.59;;;4.89;100.00
28306;BME280;7516;43.570;1.448;2022-12-18T02:31:28;100349.97;;;4.92;100.00
28306;BME280;7516;43.570;1.448;2022-12-18T02:33:59;100346.03;;;4.86;100.00
28306;BME280;7516;43.570;1.448;2022-12-18T02:36:29;100346.66;;;4.79;100.00
28306;BME280;7516;43.570;1.448;2022-12-18T02:38:59;100348.53;;;4.77;100.00
28306;BME280;7516;43.570;1.448;2022-12-18T02:41:30;100346.75;;;4.77;100.00
28306;BME280;7516;43.570;1.448;2022-12-18T02:44:01;100350.44;;;4.75;100.00
28306;BME280;7516;43.570;1.448;2022-12-18T02:46:33;100353.28;;;4.72;100.00
28306;BME280;7516;43.570;1.448;2022-12-18T02:49:10;100345.72;;;4.69;100.00
28306;BME280;7516;43.570;1.448;2022-12-18T02:51:48;100348.19;;;4.59;100.00
28306;BME280;7516;43.570;1.448;2022-12-18T02:54:41;100346.53;;;4.58;100.00
28306;BME280;7516;43.570;1.448;2022-12-18T02:57:18;100346.53;;;4.58;100.00
28306;BME280;7516;43.570;1.448;2022-12-18T02:59:55;100345.25;;;4.52;100.00
28306;BME280;7516;43.570;1.448;2022-12-18T03:02:29;100344.78;;;4.47;100.00
28306;BME280;7516;43.570;1.448;2022-12-18T03:05:04;100342.63;;;4.41;100.00
28306;BME280;7516;43.570;1.448;2022-12-18T03:07:38;100338.63;;;4.37;100.00
28306;BME280;7516;43.570;1.448;2022-12-18T03:10:11;100335.94;;;4.39;100.00
28306;BME280;7516;43.570;1.448;2022-12-18T03:12:46;100341.22;;;4.37;100.00
28306;BME280;7516;43.570;1.448;2022-12-18T03:15:18;100334.63;;;4.33;100.00
28306;BME280;7516;43.570;1.448;2022-12-18T03:17:51;100326.72;;;4.35;100.00
28306;BME280;7516;43.570;1.448;2022-12-18T03:20:22;100332.28;;;4.30;100.00
28306;BME280;7516;43.570;1.448;2022-12-18T03:22:53;100315.50;;;4.23;100.00
28306;BME280;7516;43.570;1.448;2022-12-18T03:25:23;100320.94;;;4.20;100.00
28306;BME280;7516;43.570;1.448;2022-12-18T03:27:56;100317.84;;;4.15;100.00
28306;BME280;7516;43.570;1.448;2022-12-18T03:30:27;100311.97;;;4.13;100.00
28306;BME280;7516;43.570;1.448;2022-12-18T03:33:00;100310.31;;;4.12;100.00
28306;BME280;7516;43.570;1.448;2022-12-18T03:35:33;100302.06;;;4.07;100.00
28306;BME280;7516;43.570;1.448;2022-12-18T03:38:02;100301.34;;;4.05;100.00
28306;BME280;7516;43.570;1.448;2022-12-18T03:40:34;100290.50;;;4.00;100.00
28306;BME280;7516;43.570;1.448;2022-12-18T03:43:10;100292.63;;;3.95;100.00
28306;BME280;7516;43.570;1.448;2022-12-18T03:45:45;100288.59;;;3.91;100.00
28306;BME280;7516;43.570;1.448;2022-12-18T03:48:19;100294.00;;;3.88;100.00
28306;BME280;7516;43.570;1.448;2022-12-18T03:50:57;100290.72;;;3.86;100.00
28306;BME280;7516;43.570;1.448;2022-12-18T03:53:32;100300.16;;;3.87;100.00
28306;BME280;7516;43.570;1.448;2022-12-18T03:56:04;100296.00;;;3.84;100.00
28306;BME280;7516;43.570;1.448;2022-12-18T03:58:36;100292.22;;;3.88;100.00
28306;BME280;7516;43.570;1.448;2022-12-18T04:01:10;100294.56;;;3.80;100.00
28306;BME280;7516;43.570;1.448;2022-12-18T04:03:39;100300.59;;;3.81;100.00
28306;BME280;7516;43.570;1.448;2022-12-18T04:06:08;100296.34;;;3.79;100.00
28306;BME280;7516;43.570;1.448;2022-12-18T04:08:37;100286.22;;;3.76;100.00
28306;BME280;7516;43.570;1.448;2022-12-18T04:11:06;100285.59;;;3.73;100.00
28306;BME280;7516;43.570;1.448;2022-12-18T04:13:37;100279.59;;;3.72;100.00
28306;BME280;7516;43.570;1.448;2022-12-18T04:16:05;100276.28;;;3.70;100.00
28306;BME280;7516;43.570;1.448;2022-12-18T04:18:32;100271.25;;;3.69;100.00
28306;BME280;7516;43.570;1.448;2022-12-18T04:21:00;100274.88;;;3.66;100.00
28306;BME280;7516;43.570;1.448;2022-12-18T04:23:28;100278.06;;;3.70;100.00
28306;BME280;7516;43.570;1.448;2022-12-18T04:25:55;100277.38;;;3.68;100.00
28306;BME280;7516;43.570;1.448;2022-12-18T04:28:23;100267.13;;;3.66;100.00
28306;BME280;7516;43.570;1.448;2022-12-18T04:30:52;100269.19;;;3.61;100.00
28306;BME280;7516;43.570;1.448;2022-12-18T04:33:19;100264.38;;;3.57;100.00
28306;BME280;7516;43.570;1.448;2022-12-18T04:35:47;100273.69;;;3.59;100.00
28306;BME280;7516;43.570;1.448;2022-12-18T04:38:14;100275.56;;;3.57;100.00
28306;BME280;7516;43.570;1.448;2022-12-18T04:40:42;100273.28;;;3.53;100.00
28306;BME280;7516;43.570;1.448;2022-12-18T04:43:09;100276.25;;;3.48;100.00
28306;BME280;7516;43.570;1.448;2022-12-18T04:45:37;100281.44;;;3.48;100.00
28306;BME280;7516;43.570;1.448;2022-12-18T04:48:06;100275.41;;;3.48;100.00
28306;BME280;7516;43.570;1.448;2022-12-18T04:50:33;100272.94;;;3.46;100.00
28306;BME280;7516;43.570;1.448;2022-12-18T04:53:01;100281.53;;;3.47;100.00
28306;BME280;7516;43.570;1.448;2022-12-18T04:55:28;100282.81;;;3.41;100.00
28306;BME280;7516;43.570;1.448;2022-12-18T04:57:56;100285.50;;;3.39;100.00
28306;BME280;7516;43.570;1.448;2022-12-18T05:00:24;100283.03;;;3.38;100.00
28306;BME280;7516;43.570;1.448;2022-12-18T05:02:51;100294.94;;;3.40;100.00
28306;BME280;7516;43.570;1.448;2022-12-18T05:05:20;100301.38;;;3.35;100.00
28306;BME280;7516;43.570;1.448;2022-12-18T05:07:47;100312.56;;;3.35;100.00
28306;BME280;7516;43.570;1.448;2022-12-18T05:10:15;100311.72;;;3.35;100.00
28306;BME280;7516;43.570;1.448;2022-12-18T05:12:43;100318.34;;;3.39;100.00
28306;BME280;7516;43.570;1.448;2022-12-18T05:15:39;100312.13;;;3.42;100.00
28306;BME280;7516;43.570;1.448;2022-12-18T05:18:08;100322.75;;;3.50;100.00
28306;BME280;7516;43.570;1.448;2022-12-18T05:20:35;100326.88;;;3.52;100.00
28306;BME280;7516;43.570;1.448;2022-12-18T05:23:03;100339.41;;;3.58;100.00
28306;BME280;7516;43.570;1.448;2022-12-18T05:25:30;100335.19;;;3.68;100.00
28306;BME280;7516;43.570;1.448;2022-12-18T05:27:58;100339.91;;;3.74;100.00
28306;BME280;7516;43.570;1.448;2022-12-18T05:30:25;100341.94;;;3.82;100.00
28306;BME280;7516;43.570;1.448;2022-12-18T05:32:55;100344.44;;;3.84;100.00
28306;BME280;7516;43.570;1.448;2022-12-18T05:35:22;100341.84;;;3.84;100.00
28306;BME280;7516;43.570;1.448;2022-12-18T05:37:50;100342.31;;;3.89;100.00
28306;BME280;7516;43.570;1.448;2022-12-18T05:40:17;100342.09;;;3.92;100.00
28306;BME280;7516;43.570;1.448;2022-12-18T05:42:45;100343.28;;;3.99;100.00
28306;BME280;7516;43.570;1.448;2022-12-18T05:45:13;100343.06;;;4.02;100.00
28306;BME280;7516;43.570;1.448;2022-12-18T05:47:40;100353.44;;;4.02;100.00
28306;BME280;7516;43.570;1.448;2022-12-18T05:50:10;100359.91;;;4.07;100.00
28306;BME280;7516;43.570;1.448;2022-12-18T05:52:37;100360.75;;;4.08;100.00
28306;BME280;7516;43.570;1.448;2022-12-18T05:55:05;100362.28;;;4.10;100.00
28306;BME280;7516;43.570;1.448;2022-12-18T05:57:32;100355.44;;;4.09;100.00
28306;BME280;7516;43.570;1.448;2022-12-18T06:00:00;100356.28;;;4.10;100.00
28306;BME280;7516;43.570;1.448;2022-12-18T06:02:28;100354.41;;;4.12;100.00
28306;BME280;7516;43.570;1.448;2022-12-18T06:04:55;100342.63;;;4.19;100.00
28306;BME280;7516;43.570;1.448;2022-12-18T06:07:24;100340.84;;;4.20;100.00
28306;BME280;7516;43.570;1.448;2022-12-18T06:09:52;100341.91;;;4.17;100.00
28306;BME280;7516;43.570;1.448;2022-12-18T06:12:19;100339.09;;;4.20;100.00
28306;BME280;7516;43.570;1.448;2022-12-18T06:14:47;100341.44;;;4.23;100.00
28306;BME280;7516;43.570;1.448;2022-12-18T06:17:14;100343.81;;;4.26;100.00
28306;BME280;7516;43.570;1.448;2022-12-18T06:19:42;100355.13;;;4.25;100.00
28306;BME280;7516;43.570;1.448;2022-12-18T06:22:09;100354.91;;;4.28;100.00
28306;BME280;7516;43.570;1.448;2022-12-18T06:24:38;100360.09;;;4.28;100.00
28306;BME280;7516;43.570;1.448;2022-12-18T06:27:06;100355.25;;;4.35;100.00
28306;BME280;7516;43.570;1.448;2022-12-18T06:29:33;100355.38;;;4.33;100.00
28306;BME280;7516;43.570;1.448;2022-12-18T06:32:01;100353.50;;;4.35;100.00
28306;BME280;7516;43.570;1.448;2022-12-18T06:34:33;100357.84;;;4.35;100.00
28306;BME280;7516;43.570;1.448;2022-12-18T06:37:00;100352.66;;;4.35;100.00
28306;BME280;7516;43.570;1.448;2022-12-18T06:39:28;100353.38;;;4.37;100.00
28306;BME280;7516;43.570;1.448;2022-12-18T06:41:57;100361.28;;;4.35;100.00
28306;BME280;7516;43.570;1.448;2022-12-18T06:44:24;100357.63;;;4.38;100.00
28306;BME280;7516;43.570;1.448;2022-12-18T06:46:52;100357.63;;;4.38;100.00
28306;BME280;7516;43.570;1.448;2022-12-18T06:49:20;100363.88;;;4.35;100.00
28306;BME280;7516;43.570;1.448;2022-12-18T06:51:47;100365.75;;;4.33;100.00
28306;BME280;7516;43.570;1.448;2022-12-18T06:54:15;100352.78;;;4.33;100.00
28306;BME280;7516;43.570;1.448;2022-12-18T06:56:44;100366.34;;;4.37;100.00
28306;BME280;7516;43.570;1.448;2022-12-18T06:59:13;100354.66;;;4.31;100.00
28306;BME280;7516;43.570;1.448;2022-12-18T07:01:41;100348.06;;;4.27;100.00
28306;BME280;7516;43.570;1.448;2022-12-18T07:04:09;100353.00;;;4.19;100.00
28306;BME280;7516;43.570;1.448;2022-12-18T07:06:36;100352.38;;;4.15;100.00
28306;BME280;7516;43.570;1.448;2022-12-18T07:09:04;100357.94;;;4.11;100.00
28306;BME280;7516;43.570;1.448;2022-12-18T07:11:33;100358.97;;;4.08;100.00
28306;BME280;7516;43.570;1.448;2022-12-18T07:14:00;100355.56;;;4.08;100.00
28306;BME280;7516;43.570;1.448;2022-12-18T07:16:29;100358.25;;;4.06;100.00
28306;BME280;7516;43.570;1.448;2022-12-18T07:18:57;100353.31;;;4.03;100.00
28306;BME280;7516;43.570;1.448;2022-12-18T07:21:25;100346.38;;;4.04;100.00
28306;BME280;7516;43.570;1.448;2022-12-18T07:23:53;100338.72;;;4.02;100.00
28306;BME280;7516;43.570;1.448;2022-12-18T07:26:21;100341.19;;;4.04;100.00
28306;BME280;7516;43.570;1.448;2022-12-18T07:28:49;100335.19;;;4.03;100.00
28306;BME280;7516;43.570;1.448;2022-12-18T07:31:19;100329.38;;;4.00;100.00
28306;BME280;7516;43.570;1.448;2022-12-18T07:33:48;100334.78;;;3.97;100.00
28306;BME280;7516;43.570;1.448;2022-12-18T07:36:16;100344.94;;;4.00;100.00
28306;BME280;7516;43.570;1.448;2022-12-18T07:38:46;100346.38;;;4.04;100.00
28306;BME280;7516;43.570;1.448;2022-12-18T07:41:14;100351.31;;;4.07;100.00
28306;BME280;7516;43.570;1.448;2022-12-18T07:43:41;100345.91;;;4.10;100.00
28306;BME280;7516;43.570;1.448;2022-12-18T07:46:10;100345.31;;;4.18;100.00
28306;BME280;7516;43.570;1.448;2022-12-18T07:48:39;100343.81;;;4.26;100.00
28306;BME280;7516;43.570;1.448;2022-12-18T07:51:09;100338.88;;;4.34;100.00
28306;BME280;7516;43.570;1.448;2022-12-18T07:53:37;100346.88;;;4.42;100.00
28306;BME280;7516;43.570;1.448;2022-12-18T07:56:06;100343.38;;;4.54;100.00
28306;BME280;7516;43.570;1.448;2022-12-18T07:58:34;100354.09;;;4.61;100.00
28306;BME280;7516;43.570;1.448;2022-12-18T08:01:06;100355.97;;;4.70;100.00
28306;BME280;7516;43.570;1.448;2022-12-18T08:03:34;100355.38;;;4.78;100.00
28306;BME280;7516;43.570;1.448;2022-12-18T08:06:03;100369.31;;;4.88;100.00
28306;BME280;7516;43.570;1.448;2022-12-18T08:08:33;100387.00;;;4.94;100.00
28306;BME280;7516;43.570;1.448;2022-12-18T08:11:01;100377.09;;;4.99;100.00
28306;BME280;7516;43.570;1.448;2022-12-18T08:13:29;100368.34;;;5.00;100.00
28306;BME280;7516;43.570;1.448;2022-12-18T08:15:57;100366.91;;;5.07;100.00
28306;BME280;7516;43.570;1.448;2022-12-18T08:18:25;100365.72;;;5.11;100.00
28306;BME280;7516;43.570;1.448;2022-12-18T08:20:52;100364.31;;;5.18;100.00
28306;BME280;7516;43.570;1.448;2022-12-18T08:23:20;100362.28;;;5.22;100.00
28306;BME280;7516;43.570;1.448;2022-12-18T08:25:49;100362.75;;;5.27;100.00
28306;BME280;7516;43.570;1.448;2022-12-18T08:28:17;100362.38;;;5.32;100.00
28306;BME280;7516;43.570;1.448;2022-12-18T08:30:45;100368.16;;;5.35;100.00
28306;BME280;7516;43.570;1.448;2022-12-18T08:33:12;100371.72;;;5.34;100.00
28306;BME280;7516;43.570;1.448;2022-12-18T08:35:40;100364.94;;;5.43;100.00
28306;BME280;7516;43.570;1.448;2022-12-18T08:38:07;100359.25;;;5.49;100.00
28306;BME280;7516;43.570;1.448;2022-12-18T08:40:35;100346.97;;;5.51;100.00
28306;BME280;7516;43.570;1.448;2022-12-18T08:43:03;100350.28;;;5.53;100.00
28306;BME280;7516;43.570;1.448;2022-12-18T08:45:48;100343.34;;;5.63;100.00
28306;BME280;7516;43.570;1.448;2022-12-18T08:48:16;100347.38;;;5.67;100.00
28306;BME280;7516;43.570;1.448;2022-12-18T08:50:44;100351.94;;;5.75;100.00
28306;BME280;7516;43.570;1.448;2022-12-18T08:53:20;100349.66;;;5.81;100.00
28306;BME280;7516;43.570;1.448;2022-12-18T08:55:57;100344.81;;;5.88;100.00
28306;BME280;7516;43.570;1.448;2022-12-18T08:58:26;100350.09;;;5.97;100.00
28306;BME280;7516;43.570;1.448;2022-12-18T09:00:53;100352.31;;;6.02;100.00
28306;BME280;7516;43.570;1.448;2022-12-18T09:03:22;100350.84;;;6.09;100.00
28306;BME280;7516;43.570;1.448;2022-12-18T09:05:49;100354.97;;;6.12;100.00
28306;BME280;7516;43.570;1.448;2022-12-18T09:08:17;100366.63;;;6.17;100.00
28306;BME280;7516;43.570;1.448;2022-12-18T09:10:45;100363.66;;;6.22;100.00
28306;BME280;7516;43.570;1.448;2022-12-18T09:13:14;100370.59;;;6.32;100.00
28306;BME280;7516;43.570;1.448;2022-12-18T09:15:44;100362.63;;;6.34;100.00
28306;BME280;7516;43.570;1.448;2022-12-18T09:18:13;100360.19;;;6.42;100.00
28306;BME280;7516;43.570;1.448;2022-12-18T09:20:40;100356.03;;;6.51;100.00
28306;BME280;7516;43.570;1.448;2022-12-18T09:23:08;100358.78;;;6.59;100.00
28306;BME280;7516;43.570;1.448;2022-12-18T09:25:36;100367.72;;;6.66;100.00
28306;BME280;7516;43.570;1.448;2022-12-18T09:28:06;100377.34;;;6.75;100.00
28306;BME280;7516;43.570;1.448;2022-12-18T09:30:34;100375.75;;;6.84;100.00
28306;BME280;7516;43.570;1.448;2022-12-18T09:33:05;100374.97;;;6.93;100.00
28306;BME280;7516;43.570;1.448;2022-12-18T09:35:35;100363.16;;;6.98;100.00
28306;BME280;7516;43.570;1.448;2022-12-18T09:38:03;100363.75;;;7.02;100.00
28306;BME280;7516;43.570;1.448;2022-12-18T09:40:35;100358.13;;;7.06;100.00
28306;BME280;7516;43.570;1.448;2022-12-18T09:43:05;100362.41;;;7.17;100.00
28306;BME280;7516;43.570;1.448;2022-12-18T09:45:38;100362.28;;;7.28;100.00
28306;BME280;7516;43.570;1.448;2022-12-18T09:48:11;100342.94;;;7.40;100.00
28306;BME280;7516;43.570;1.448;2022-12-18T09:50:43;100345.03;;;7.46;100.00
28306;BME280;7516;43.570;1.448;2022-12-18T09:53:16;100341.31;;;7.59;100.00
28306;BME280;7516;43.570;1.448;2022-12-18T09:55:47;100349.28;;;7.67;100.00
28306;BME280;7516;43.570;1.448;2022-12-18T09:58:19;100342.69;;;7.72;100.00
28306;BME280;7516;43.570;1.448;2022-12-18T10:00:48;100347.34;;;7.78;100.00
28306;BME280;7516;43.570;1.448;2022-12-18T10:03:16;100358.75;;;7.87;100.00
28306;BME280;7516;43.570;1.448;2022-12-18T10:05:49;100356.13;;;7.87;100.00
28306;BME280;7516;43.570;1.448;2022-12-18T10:08:24;100350.09;;;7.96;100.00
28306;BME280;7516;43.570;1.448;2022-12-18T10:10:57;100352.25;;;8.01;100.00
28306;BME280;7516;43.570;1.448;2022-12-18T10:13:31;100359.13;;;8.11;100.00
28306;BME280;7516;43.570;1.448;2022-12-18T10:16:15;100354.97;;;8.18;100.00
28306;BME280;7516;43.570;1.448;2022-12-18T10:19:01;100366.53;;;8.25;100.00
28306;BME280;7516;43.570;1.448;2022-12-18T10:21:42;100369.66;;;8.29;100.00
28306;BME280;7516;43.570;1.448;2022-12-18T10:24:17;100368.31;;;8.35;100.00
28306;BME280;7516;43.570;1.448;2022-12-18T10:26:49;100370.63;;;8.38;100.00
28306;BME280;7516;43.570;1.448;2022-12-18T10:29:17;100374.75;;;8.40;100.00
28306;BME280;7516;43.570;1.448;2022-12-18T10:31:45;100362.38;;;8.42;100.00
28306;BME280;7516;43.570;1.448;2022-12-18T10:34:14;100380.38;;;8.45;100.00
28306;BME280;7516;43.570;1.448;2022-12-18T10:36:42;100373.09;;;8.49;100.00
28306;BME280;7516;43.570;1.448;2022-12-18T10:39:17;100372.81;;;8.52;100.00
28306;BME280;7516;43.570;1.448;2022-12-18T10:41:45;100380.66;;;8.52;100.00
28306;BME280;7516;43.570;1.448;2022-12-18T10:44:17;100370.03;;;8.53;100.00
28306;BME280;7516;43.570;1.448;2022-12-18T10:46:45;100373.88;;;8.59;100.00
28306;BME280;7516;43.570;1.448;2022-12-18T10:49:23;100370.31;;;8.60;100.00
28306;BME280;7516;43.570;1.448;2022-12-18T10:51:52;100371.66;;;8.64;100.00
28306;BME280;7516;43.570;1.448;2022-12-18T10:54:32;100378.25;;;8.68;100.00
28306;BME280;7516;43.570;1.448;2022-12-18T10:57:15;100373.53;;;8.72;100.00
28306;BME280;7516;43.570;1.448;2022-12-18T10:59:51;100371.63;;;8.74;100.00
28306;BME280;7516;43.570;1.448;2022-12-18T11:02:28;100369.41;;;8.79;100.00
28306;BME280;7516;43.570;1.448;2022-12-18T11:04:57;100363.75;;;8.83;100.00
28306;BME280;7516;43.570;1.448;2022-12-18T11:07:24;100350.06;;;8.89;100.00
28306;BME280;7516;43.570;1.448;2022-12-18T11:10:00;100348.16;;;8.91;100.00
28306;BME280;7516;43.570;1.448;2022-12-18T11:12:30;100351.44;;;8.93;100.00
28306;BME280;7516;43.570;1.448;2022-12-18T11:14:57;100350.34;;;8.96;100.00
28306;BME280;7516;43.570;1.448;2022-12-18T11:17:29;100359.97;;;8.95;100.00
28306;BME280;7516;43.570;1.448;2022-12-18T11:19:59;100358.84;;;8.98;100.00
28306;BME280;7516;43.570;1.448;2022-12-18T11:22:30;100350.03;;;8.99;100.00
28306;BME280;7516;43.570;1.448;2022-12-18T11:24:59;100344.16;;;8.97;100.00
28306;BME280;7516;43.570;1.448;2022-12-18T11:27:29;100342.72;;;9.02;100.00
28306;BME280;7516;43.570;1.448;2022-12-18T11:30:08;100328.38;;;9.06;100.00
28306;BME280;7516;43.570;1.448;2022-12-18T11:32:38;100306.22;;;9.11;100.00
28306;BME280;7516;43.570;1.448;2022-12-18T11:35:17;100289.28;;;9.15;100.00
28306;BME280;7516;43.570;1.448;2022-12-18T11:37:49;100275.06;;;9.17;100.00
28306;BME280;7516;43.570;1.448;2022-12-18T11:40:22;100285.09;;;9.22;100.00
28306;BME280;7516;43.570;1.448;2022-12-18T11:42:58;100276.94;;;9.25;100.00
28306;BME280;7516;43.570;1.448;2022-12-18T11:45:30;100287.25;;;9.26;100.00
28306;BME280;7516;43.570;1.448;2022-12-18T11:48:03;100274.84;;;9.28;99.67
28306;BME280;7516;43.570;1.448;2022-12-18T11:50:41;100286.13;;;9.29;100.00
28306;BME280;7516;43.570;1.448;2022-12-18T11:53:12;100283.22;;;9.32;99.58
28306;BME280;7516;43.570;1.448;2022-12-18T11:55:46;100276.03;;;9.34;99.23
28306;BME280;7516;43.570;1.448;2022-12-18T11:58:26;100273.81;;;9.39;98.51
28306;BME280;7516;43.570;1.448;2022-12-18T12:01:04;100278.06;;;9.40;98.20
28306;BME280;7516;43.570;1.448;2022-12-18T12:03:58;100278.56;;;9.43;98.57
28306;BME280;7516;43.570;1.448;2022-12-18T12:06:36;100290.84;;;9.43;97.59
28306;BME280;7516;43.570;1.448;2022-12-18T12:09:14;100282.00;;;9.44;98.25
28306;BME280;7516;43.570;1.448;2022-12-18T12:11:56;100286.00;;;9.48;98.51
28306;BME280;7516;43.570;1.448;2022-12-18T12:14:47;100281.41;;;9.50;98.04
28306;BME280;7516;43.570;1.448;2022-12-18T12:17:23;100269.53;;;9.56;98.60
28306;BME280;7516;43.570;1.448;2022-12-18T12:20:01;100275.44;;;9.58;98.69
28306;BME280;7516;43.570;1.448;2022-12-18T12:22:40;100279.84;;;9.57;98.56
28306;BME280;7516;43.570;1.448;2022-12-18T12:25:31;100281.19;;;9.61;98.65
28306;BME280;7516;43.570;1.448;2022-12-18T12:28:11;100268.91;;;9.62;98.69
28306;BME280;7516;43.570;1.448;2022-12-18T12:30:46;100274.34;;;9.68;98.49
28306;BME280;7516;43.570;1.448;2022-12-18T12:33:27;100275.84;;;9.71;98.97
28306;BME280;7516;43.570;1.448;2022-12-18T12:36:03;100268.53;;;9.74;99.36
28306;BME280;7516;43.570;1.448;2022-12-18T12:38:40;100273.75;;;9.74;98.47
28306;BME280;7516;43.570;1.448;2022-12-18T12:41:12;100268.22;;;9.77;99.26
28306;BME280;7516;43.570;1.448;2022-12-18T12:43:57;100273.66;;;9.84;99.21
28306;BME280;7516;43.570;1.448;2022-12-18T12:46:27;100262.72;;;9.89;98.88
28306;BME280;7516;43.570;1.448;2022-12-18T12:48:58;100271.25;;;9.91;98.68
28306;BME280;7516;43.570;1.448;2022-12-18T12:51:29;100266.03;;;9.91;99.06
28306;BME280;7516;43.570;1.448;2022-12-18T12:53:59;100243.59;;;9.88;99.33
28306;BME280;7516;43.570;1.448;2022-12-18T12:56:32;100246.19;;;9.88;99.05
28306;BME280;7516;43.570;1.448;2022-12-18T12:59:11;100260.94;;;9.89;99.23
28306;BME280;7516;43.570;1.448;2022-12-18T13:01:54;100254.56;;;9.92;99.30
28306;BME280;7516;43.570;1.448;2022-12-18T13:04:30;100261.91;;;9.88;99.56
28306;BME280;7516;43.570;1.448;2022-12-18T13:07:05;100260.94;;;9.89;99.66
28306;BME280;7516;43.570;1.448;2022-12-18T13:12:52;100266.16;;;9.89;98.88
28306;BME280;7516;43.570;1.448;2022-12-18T13:15:24;100281.06;;;9.89;99.26
28306;BME280;7516;43.570;1.448;2022-12-18T13:18:15;100282.03;;;9.88;99.03
28306;BME280;7516;43.570;1.448;2022-12-18T13:20:44;100280.22;;;9.88;98.85
28306;BME280;7516;43.570;1.448;2022-12-18T13:23:33;100277.75;;;9.87;99.86
28306;BME280;7516;43.570;1.448;2022-12-18T13:29:06;100275.81;;;9.89;99.09